sensor_id;sensor_type;location;lat;lon;timestamp;pressure;altitude;pressure_sealevel;temperature;humidity
42591;BME280;28218;53.342;-6.216;2023-04-01T00:01:06;99948.38;;;11.44;100.00
42591;BME280;28218;53.342;-6.216;2023-04-01T00:03:36;99956.47;;;11.43;100.00
42591;BME280;28218;53.342;-6.216;2023-04-01T00:06:04;99958.53;;;11.47;100.00
42591;BME280;28218;53.342;-6.216;2023-04-01T00:08:32;99953.84;;;11.43;100.00
42591;BME280;28218;53.342;-6.216;2023-04-01T00:11:01;99961.94;;;11.41;100.00
42591;BME280;28218;53.342;-6.216;2023-04-01T00:13:29;99961.34;;;11.39;100.00
42591;BME280;28218;53.342;-6.216;2023-04-01T00:15:57;99967.00;;;11.36;100.00
42591;BME280;28218;53.342;-6.216;2023-04-01T00:18:26;99959.31;;;11.41;100.00
42591;BME280;28218;53.342;-6.216;2023-04-01T00:20:55;99956.06;;;11.39;100.00
42591;BME280;28218;53.342;-6.216;2023-04-01T00:23:23;99967.81;;;11.37;100.00
42591;BME280;28218;53.342;-6.216;2023-04-01T00:25:52;99967.00;;;11.36;100.00
42591;BME280;28218;53.342;-6.216;2023-04-01T00:28:20;99966.19;;;11.36;100.00
42591;BME280;28218;53.342;-6.216;2023-04-01T00:30:48;99967.00;;;11.36;100.00
42591;BME280;28218;53.342;-6.216;2023-04-01T00:33:17;99962.72;;;11.35;100.00
42591;BME280;28218;53.342;-6.216;2023-04-01T00:35:45;99964.72;;;11.33;100.00
42591;BME280;28218;53.342;-6.216;2023-04-01T00:38:15;99970.00;;;11.33;100.00
42591;BME280;28218;53.342;-6.216;2023-04-01T00:40:46;99966.19;;;11.36;100.00
42591;BME280;28218;53.342;-6.216;2023-04-01T00:43:15;99960.25;;;11.34;100.00
42591;BME280;28218;53.342;-6.216;2023-04-01T00:45:47;99957.81;;;11.32;100.00
42591;BME280;28218;53.342;-6.216;2023-04-01T00:48:17;99966.09;;;11.29;100.00
42591;BME280;28218;53.342;-6.216;2023-04-01T00:50:50;99961.84;;;11.28;100.00
42591;BME280;28218;53.342;-6.216;2023-04-01T00:53:21;99955.56;;;11.29;100.00
42591;BME280;28218;53.342;-6.216;2023-04-01T00:55:55;99969.75;;;11.28;100.00
42591;BME280;28218;53.342;-6.216;2023-04-01T00:58:25;99967.94;;;11.29;100.00
42591;BME280;28218;53.342;-6.216;2023-04-01T01:00:55;99970.56;;;11.29;100.00
42591;BME280;28218;53.342;-6.216;2023-04-01T01:03:24;99977.06;;;11.26;100.00
42591;BME280;28218;53.342;-6.216;2023-04-01T01:06:08;99977.81;;;11.20;100.00
42591;BME280;28218;53.342;-6.216;2023-04-01T01:08:50;99978.25;;;11.23;100.00
42591;BME280;28218;53.342;-6.216;2023-04-01T01:11:25;99977.00;;;11.19;100.00
42591;BME280;28218;53.342;-6.216;2023-04-01T01:14:16;99984.72;;;11.21;100.00
42591;BME280;28218;53.342;-6.216;2023-04-01T01:16:53;99980.84;;;11.17;100.00
42591;BME280;28218;53.342;-6.216;2023-04-01T01:19:39;99977.75;;;11.13;100.00
42591;BME280;28218;53.342;-6.216;2023-04-01T01:22:36;99986.69;;;11.12;100.00
42591;BME280;28218;53.342;-6.216;2023-04-01T01:25:20;99989.34;;;11.19;100.00
42591;BME280;28218;53.342;-6.216;2023-04-01T01:28:00;99994.22;;;11.15;100.00
42591;BME280;28218;53.342;-6.216;2023-04-01T01:30:42;99997.66;;;11.16;100.00
42591;BME280;28218;53.342;-6.216;2023-04-01T01:33:30;99991.94;;;11.12;100.00
42591;BME280;28218;53.342;-6.216;2023-04-01T01:36:06;100000.47;;;11.14;100.00
42591;BME280;28218;53.342;-6.216;2023-04-01T01:38:37;99997.59;;;11.09;100.00
42591;BME280;28218;53.342;-6.216;2023-04-01T01:41:07;99999.88;;;11.12;100.00
42591;BME280;28218;53.342;-6.216;2023-04-01T01:43:39;100006.56;;;11.15;100.00
42591;BME280;28218;53.342;-6.216;2023-04-01T01:46:11;100010.03;;;11.15;100.00
42591;BME280;28218;53.342;-6.216;2023-04-01T01:48:41;100010.03;;;11.15;100.00
42591;BME280;28218;53.342;-6.216;2023-04-01T01:51:12;100006.56;;;11.15;100.00
42591;BME280;28218;53.342;-6.216;2023-04-01T01:53:41;100003.31;;;11.13;100.00
42591;BME280;28218;53.342;-6.216;2023-04-01T01:56:12;100000.88;;;11.11;100.00
42591;BME280;28218;53.342;-6.216;2023-04-01T01:58:43;100005.94;;;11.13;100.00
42591;BME280;28218;53.342;-6.216;2023-04-01T02:01:15;100009.41;;;11.13;100.00
42591;BME280;28218;53.342;-6.216;2023-04-01T02:03:44;100009.59;;;11.12;100.00
42591;BME280;28218;53.342;-6.216;2023-04-01T02:06:17;100004.94;;;11.14;100.00
42591;BME280;28218;53.342;-6.216;2023-04-01T02:08:50;100011.84;;;11.15;100.00
42591;BME280;28218;53.342;-6.216;2023-04-01T02:11:24;100015.31;;;11.15;100.00
42591;BME280;28218;53.342;-6.216;2023-04-01T02:13:56;100011.03;;;11.14;100.00
42591;BME280;28218;53.342;-6.216;2023-04-01T02:16:34;100023.03;;;11.17;100.00
42591;BME280;28218;53.342;-6.216;2023-04-01T02:19:04;100015.47;;;11.14;100.00
42591;BME280;28218;53.342;-6.216;2023-04-01T02:21:36;100029.69;;;11.13;100.00
42591;BME280;28218;53.342;-6.216;2023-04-01T02:24:09;100031.88;;;11.09;100.00
42591;BME280;28218;53.342;-6.216;2023-04-01T02:26:38;100030.03;;;11.10;100.00
42591;BME280;28218;53.342;-6.216;2023-04-01T02:29:09;100034.50;;;11.09;100.00
42591;BME280;28218;53.342;-6.216;2023-04-01T02:31:40;100043.41;;;11.08;100.00
42591;BME280;28218;53.342;-6.216;2023-04-01T02:34:09;100042.59;;;11.08;100.00
42591;BME280;28218;53.342;-6.216;2023-04-01T02:36:39;100039.78;;;11.09;100.00
42591;BME280;28218;53.342;-6.216;2023-04-01T02:39:07;100043.22;;;11.10;100.00
42591;BME280;28218;53.342;-6.216;2023-04-01T02:41:39;100046.66;;;11.10;100.00
42591;BME280;28218;53.342;-6.216;2023-04-01T02:44:07;100042.00;;;11.06;100.00
42591;BME280;28218;53.342;-6.216;2023-04-01T02:46:35;100047.06;;;11.07;100.00
42591;BME280;28218;53.342;-6.216;2023-04-01T02:49:05;100050.53;;;11.08;100.00
42591;BME280;28218;53.342;-6.216;2023-04-01T02:51:33;100049.50;;;11.09;100.00
42591;BME280;28218;53.342;-6.216;2023-04-01T02:54:04;100048.91;;;11.07;100.00
42591;BME280;28218;53.342;-6.216;2023-04-01T02:56:32;100051.06;;;11.03;100.00
42591;BME280;28218;53.342;-6.216;2023-04-01T02:59:01;100052.53;;;11.06;100.00
42591;BME280;28218;53.342;-6.216;2023-04-01T03:01:29;100056.97;;;11.05;100.00
42591;BME280;28218;53.342;-6.216;2023-04-01T03:03:57;100061.44;;;11.05;100.00
42591;BME280;28218;53.342;-6.216;2023-04-01T03:06:25;100062.69;;;11.09;100.00
42591;BME280;28218;53.342;-6.216;2023-04-01T03:08:53;100060.44;;;11.06;100.00
42591;BME280;28218;53.342;-6.216;2023-04-01T03:11:23;100061.06;;;11.08;100.00
42591;BME280;28218;53.342;-6.216;2023-04-01T03:13:52;100070.59;;;11.09;100.00
42591;BME280;28218;53.342;-6.216;2023-04-01T03:16:21;100074.25;;;11.08;100.00
42591;BME280;28218;53.342;-6.216;2023-04-01T03:18:49;100074.88;;;11.10;100.00
42591;BME280;28218;53.342;-6.216;2023-04-01T03:21:21;100071.41;;;11.09;100.00
42591;BME280;28218;53.342;-6.216;2023-04-01T03:23:49;100069.59;;;11.10;100.00
42591;BME280;28218;53.342;-6.216;2023-04-01T03:26:18;100079.16;;;11.11;100.00
42591;BME280;28218;53.342;-6.216;2023-04-01T03:28:49;100070.25;;;11.12;100.00
42591;BME280;28218;53.342;-6.216;2023-04-01T03:31:18;100082.59;;;11.11;100.00
42591;BME280;28218;53.342;-6.216;2023-04-01T03:33:49;100081.78;;;11.11;100.00
42591;BME280;28218;53.342;-6.216;2023-04-01T03:36:17;100089.69;;;11.11;100.00
42591;BME280;28218;53.342;-6.216;2023-04-01T03:38:46;100087.22;;;11.09;100.00
42591;BME280;28218;53.342;-6.216;2023-04-01T03:41:16;100086.22;;;11.10;100.00
42591;BME280;28218;53.342;-6.216;2023-04-01T03:43:44;100095.13;;;11.09;100.00
42591;BME280;28218;53.342;-6.216;2023-04-01T03:46:18;100098.59;;;11.10;100.00
42591;BME280;28218;53.342;-6.216;2023-04-01T03:48:47;100092.50;;;11.09;100.00
42591;BME280;28218;53.342;-6.216;2023-04-01T03:51:15;100096.97;;;11.09;100.00
42591;BME280;28218;53.342;-6.216;2023-04-01T03:53:43;100099.16;;;11.05;100.00
42591;BME280;28218;53.342;-6.216;2023-04-01T03:56:12;100100.97;;;11.05;100.00
42591;BME280;28218;53.342;-6.216;2023-04-01T03:58:40;100102.78;;;11.04;100.00
42591;BME280;28218;53.342;-6.216;2023-04-01T04:01:16;100110.09;;;11.02;100.00
42591;BME280;28218;53.342;-6.216;2023-04-01T04:03:46;100108.47;;;11.01;100.00
42591;BME280;28218;53.342;-6.216;2023-04-01T04:06:16;100112.47;;;10.97;100.00
42591;BME280;28218;53.342;-6.216;2023-04-01T04:08:45;100104.72;;;10.95;100.00
42591;BME280;28218;53.342;-6.216;2023-04-01T04:11:13;100115.25;;;10.95;100.00
42591;BME280;28218;53.342;-6.216;2023-04-01T04:13:42;100113.44;;;10.96;100.00
42591;BME280;28218;53.342;-6.216;2023-04-01T04:16:11;100121.53;;;10.94;100.00
42591;BME280;28218;53.342;-6.216;2023-04-01T04:18:39;100126.81;;;10.94;100.00
42591;BME280;28218;53.342;-6.216;2023-04-01T04:21:13;100121.53;;;10.94;100.00
42591;BME280;28218;53.342;-6.216;2023-04-01T04:23:42;100120.72;;;10.94;100.00
42591;BME280;28218;53.342;-6.216;2023-04-01T04:26:12;100123.56;;;10.92;100.00
42591;BME280;28218;53.342;-6.216;2023-04-01T04:28:40;100121.53;;;10.94;100.00
42591;BME280;28218;53.342;-6.216;2023-04-01T04:31:09;100136.91;;;10.91;100.00
42591;BME280;28218;53.342;-6.216;2023-04-01T04:33:37;100132.63;;;10.90;100.00
42591;BME280;28218;53.342;-6.216;2023-04-01T04:36:06;100132.84;;;10.88;100.00
42591;BME280;28218;53.342;-6.216;2023-04-01T04:38:35;100136.09;;;10.90;100.00
42591;BME280;28218;53.342;-6.216;2023-04-01T04:41:08;100141.00;;;10.93;100.00
42591;BME280;28218;53.342;-6.216;2023-04-01T04:43:37;100142.81;;;10.93;100.00
42591;BME280;28218;53.342;-6.216;2023-04-01T04:46:06;100146.47;;;10.92;100.00
42591;BME280;28218;53.342;-6.216;2023-04-01T04:48:34;100151.28;;;10.88;100.00
42591;BME280;28218;53.342;-6.216;2023-04-01T04:51:03;100153.28;;;10.86;100.00
42591;BME280;28218;53.342;-6.216;2023-04-01T04:53:31;100162.44;;;10.90;100.00
42591;BME280;28218;53.342;-6.216;2023-04-01T04:56:01;100159.81;;;10.90;100.00
42591;BME280;28218;53.342;-6.216;2023-04-01T04:58:29;100164.47;;;10.88;100.00
42591;BME280;28218;53.342;-6.216;2023-04-01T05:00:57;100167.09;;;10.88;100.00
42591;BME280;28218;53.342;-6.216;2023-04-01T05:03:26;100164.47;;;10.88;100.00
42591;BME280;28218;53.342;-6.216;2023-04-01T05:05:54;100179.28;;;10.89;100.00
42591;BME280;28218;53.342;-6.216;2023-04-01T05:08:22;100180.28;;;10.88;100.00
42591;BME280;28218;53.342;-6.216;2023-04-01T05:10:51;100180.44;;;10.87;100.00
42591;BME280;28218;53.342;-6.216;2023-04-01T05:13:20;100175.38;;;10.85;100.00
42591;BME280;28218;53.342;-6.216;2023-04-01T05:15:49;100184.75;;;10.88;100.00
42591;BME280;28218;53.342;-6.216;2023-04-01T05:18:17;100186.56;;;10.87;100.00
42591;BME280;28218;53.342;-6.216;2023-04-01T05:20:48;100187.00;;;10.91;100.00
42591;BME280;28218;53.342;-6.216;2023-04-01T05:23:17;100190.63;;;10.90;100.00
42591;BME280;28218;53.342;-6.216;2023-04-01T05:25:47;100196.72;;;10.90;100.00
42591;BME280;28218;53.342;-6.216;2023-04-01T05:28:16;100198.53;;;10.90;100.00
42591;BME280;28218;53.342;-6.216;2023-04-01T05:30:46;100201.38;;;10.88;100.00
42591;BME280;28218;53.342;-6.216;2023-04-01T05:33:14;100216.78;;;10.91;100.00
42591;BME280;28218;53.342;-6.216;2023-04-01T05:35:42;100214.16;;;10.91;100.00
42591;BME280;28218;53.342;-6.216;2023-04-01T05:38:11;100219.44;;;10.91;100.00
42591;BME280;28218;53.342;-6.216;2023-04-01T05:40:39;100225.34;;;10.93;100.00
42591;BME280;28218;53.342;-6.216;2023-04-01T05:43:08;100229.81;;;10.93;100.00
42591;BME280;28218;53.342;-6.216;2023-04-01T05:45:36;100237.19;;;10.97;100.00
42591;BME280;28218;53.342;-6.216;2023-04-01T05:48:06;100234.16;;;11.00;100.00
42591;BME280;28218;53.342;-6.216;2023-04-01T05:50:34;100234.53;;;10.97;100.00
42591;BME280;28218;53.342;-6.216;2023-04-01T05:53:02;100242.25;;;10.99;100.00
42591;BME280;28218;53.342;-6.216;2023-04-01T05:55:30;100240.81;;;10.96;100.00
42591;BME280;28218;53.342;-6.216;2023-04-01T05:57:59;100250.97;;;10.99;100.00
42591;BME280;28218;53.342;-6.216;2023-04-01T06:00:27;100256.25;;;10.99;100.00
42591;BME280;28218;53.342;-6.216;2023-04-01T06:02:58;100250.97;;;10.99;100.00
42591;BME280;28218;53.342;-6.216;2023-04-01T06:05:30;100249.97;;;11.00;100.00
42591;BME280;28218;53.342;-6.216;2023-04-01T06:08:01;100264.97;;;11.00;100.00
42591;BME280;28218;53.342;-6.216;2023-04-01T06:10:42;100265.16;;;10.98;100.00
42591;BME280;28218;53.342;-6.216;2023-04-01T06:13:19;100264.97;;;11.00;100.00
42591;BME280;28218;53.342;-6.216;2023-04-01T06:15:55;100270.63;;;10.97;100.00
42591;BME280;28218;53.342;-6.216;2023-04-01T06:18:52;100275.91;;;10.97;100.00
42591;BME280;28218;53.342;-6.216;2023-04-01T06:21:59;100281.78;;;10.99;100.00
42591;BME280;28218;53.342;-6.216;2023-04-01T06:27:39;100298.81;;;10.96;100.00
42591;BME280;28218;53.342;-6.216;2023-04-01T06:30:28;100307.25;;;10.92;100.00
42591;BME280;28218;53.342;-6.216;2023-04-01T06:33:16;100309.25;;;10.90;100.00
42591;BME280;28218;53.342;-6.216;2023-04-01T06:36:02;100317.41;;;10.80;100.00
42591;BME280;28218;53.342;-6.216;2023-04-01T06:39:02;100322.75;;;10.72;100.00
42591;BME280;28218;53.342;-6.216;2023-04-01T06:44:56;100332.38;;;10.65;100.00
42591;BME280;28218;53.342;-6.216;2023-04-01T06:47:41;100344.72;;;10.64;100.00
42591;BME280;28218;53.342;-6.216;2023-04-01T06:50:22;100351.00;;;10.63;100.00
42591;BME280;28218;53.342;-6.216;2023-04-01T06:52:58;100355.44;;;10.63;100.00
42591;BME280;28218;53.342;-6.216;2023-04-01T06:55:37;100361.53;;;10.63;100.00
42591;BME280;28218;53.342;-6.216;2023-04-01T06:58:15;100367.78;;;10.62;100.00
42591;BME280;28218;53.342;-6.216;2023-04-01T07:00:46;100374.88;;;10.62;100.00
42591;BME280;28218;53.342;-6.216;2023-04-01T07:03:21;100376.50;;;10.63;100.00
42591;BME280;28218;53.342;-6.216;2023-04-01T07:05:52;100382.63;;;10.63;100.00
42591;BME280;28218;53.342;-6.216;2023-04-01T07:08:25;100394.78;;;10.64;100.00
42591;BME280;28218;53.342;-6.216;2023-04-01T07:11:01;100404.16;;;10.67;100.00
42591;BME280;28218;53.342;-6.216;2023-04-01T07:13:33;100406.44;;;10.70;100.00
42591;BME280;28218;53.342;-6.216;2023-04-01T07:16:11;100420.44;;;10.70;100.00
42591;BME280;28218;53.342;-6.216;2023-04-01T07:18:44;100419.44;;;10.71;100.00
42591;BME280;28218;53.342;-6.216;2023-04-01T07:21:22;100424.53;;;10.73;100.00
42591;BME280;28218;53.342;-6.216;2023-04-01T07:23:53;100425.34;;;10.73;100.00
42591;BME280;28218;53.342;-6.216;2023-04-01T07:26:24;100429.97;;;10.71;100.00
42591;BME280;28218;53.342;-6.216;2023-04-01T07:28:54;100432.59;;;10.71;100.00
42591;BME280;28218;53.342;-6.216;2023-04-01T07:31:32;100443.97;;;10.72;100.00
42591;BME280;28218;53.342;-6.216;2023-04-01T07:34:10;100454.69;;;10.70;100.00
42591;BME280;28218;53.342;-6.216;2023-04-01T07:36:44;100454.06;;;10.68;100.00
42591;BME280;28218;53.342;-6.216;2023-04-01T07:39:26;100460.16;;;10.69;100.00
42591;BME280;28218;53.342;-6.216;2023-04-01T07:42:02;100468.88;;;10.69;100.00
42591;BME280;28218;53.342;-6.216;2023-04-01T07:44:40;100474.84;;;10.63;100.00
42591;BME280;28218;53.342;-6.216;2023-04-01T07:47:23;100485.72;;;10.60;100.00
42591;BME280;28218;53.342;-6.216;2023-04-01T07:50:04;100494.63;;;10.59;100.00
42591;BME280;28218;53.342;-6.216;2023-04-01T07:52:44;100503.50;;;10.58;100.00
42591;BME280;28218;53.342;-6.216;2023-04-01T07:55:24;100515.84;;;10.58;100.00
42591;BME280;28218;53.342;-6.216;2023-04-01T07:58:03;100516.66;;;10.58;100.00
42591;BME280;28218;53.342;-6.216;2023-04-01T08:00:42;100520.31;;;10.57;100.00
42591;BME280;28218;53.342;-6.216;2023-04-01T08:03:40;100529.50;;;10.61;100.00
42591;BME280;28218;53.342;-6.216;2023-04-01T08:06:14;100535.25;;;10.65;100.00
42591;BME280;28218;53.342;-6.216;2023-04-01T08:08:55;100544.97;;;10.64;100.00
42591;BME280;28218;53.342;-6.216;2023-04-01T08:11:37;100548.91;;;10.68;100.00
42591;BME280;28218;53.342;-6.216;2023-04-01T08:14:16;100556.97;;;10.67;100.00
42591;BME280;28218;53.342;-6.216;2023-04-01T08:16:54;100555.97;;;10.68;100.00
42591;BME280;28218;53.342;-6.216;2023-04-01T08:19:34;100561.91;;;10.70;100.00
42591;BME280;28218;53.342;-6.216;2023-04-01T08:22:09;100572.94;;;10.73;100.00
42591;BME280;28218;53.342;-6.216;2023-04-01T08:24:42;100575.72;;;10.72;100.00
42591;BME280;28218;53.342;-6.216;2023-04-01T08:27:20;100585.28;;;10.73;100.00
42591;BME280;28218;53.342;-6.216;2023-04-01T08:29:55;100587.22;;;10.79;100.00
42591;BME280;28218;53.342;-6.216;2023-04-01T08:32:28;100594.81;;;10.82;100.00
42591;BME280;28218;53.342;-6.216;2023-04-01T08:35:08;100607.97;;;10.82;100.00
42591;BME280;28218;53.342;-6.216;2023-04-01T08:37:39;100609.91;;;10.88;100.00
42591;BME280;28218;53.342;-6.216;2023-04-01T08:40:35;100611.22;;;10.92;100.00
42591;BME280;28218;53.342;-6.216;2023-04-01T08:43:09;100621.06;;;10.98;100.00
42591;BME280;28218;53.342;-6.216;2023-04-01T08:46:04;100615.09;;;11.05;100.00
42591;BME280;28218;53.342;-6.216;2023-04-01T08:49:01;100621.66;;;11.09;100.00
42591;BME280;28218;53.342;-6.216;2023-04-01T08:52:12;100629.25;;;11.12;100.00
42591;BME280;28218;53.342;-6.216;2023-04-01T08:55:14;100634.16;;;11.15;100.00
42591;BME280;28218;53.342;-6.216;2023-04-01T08:57:58;100645.19;;;11.18;100.00
42591;BME280;28218;53.342;-6.216;2023-04-01T09:00:31;100648.63;;;11.19;100.00
42591;BME280;28218;53.342;-6.216;2023-04-01T09:06:32;100659.84;;;11.21;100.00
42591;BME280;28218;53.342;-6.216;2023-04-01T09:09:21;100663.47;;;11.20;100.00
42591;BME280;28218;53.342;-6.216;2023-04-01T09:12:00;100668.25;;;11.24;100.00
42591;BME280;28218;53.342;-6.216;2023-04-01T09:14:48;100678.25;;;11.29;100.00
42591;BME280;28218;53.342;-6.216;2023-04-01T09:17:48;100685.53;;;11.27;100.00
42591;BME280;28218;53.342;-6.216;2023-04-01T09:20:37;100691.44;;;11.29;100.00
42591;BME280;28218;53.342;-6.216;2023-04-01T09:23:22;100689.13;;;11.34;100.00
42591;BME280;28218;53.342;-6.216;2023-04-01T09:26:14;100696.03;;;11.35;100.00
42591;BME280;28218;53.342;-6.216;2023-04-01T09:28:54;100706.41;;;11.37;100.00
42591;BME280;28218;53.342;-6.216;2023-04-01T09:31:49;100699.16;;;11.39;100.00
42591;BME280;28218;53.342;-6.216;2023-04-01T09:34:27;100708.53;;;11.41;100.00
42591;BME280;28218;53.342;-6.216;2023-04-01T09:37:15;100713.94;;;11.48;100.00
42591;BME280;28218;53.342;-6.216;2023-04-01T09:39:56;100720.50;;;11.52;100.00
42591;BME280;28218;53.342;-6.216;2023-04-01T09:42:42;100722.97;;;11.54;100.00
42591;BME280;28218;53.342;-6.216;2023-04-01T09:45:22;100731.03;;;11.52;100.00
42591;BME280;28218;53.342;-6.216;2023-04-01T09:48:07;100726.59;;;11.52;100.00
42591;BME280;28218;53.342;-6.216;2023-04-01T09:50:46;100735.16;;;11.55;100.00
42591;BME280;28218;53.342;-6.216;2023-04-01T09:56:57;100748.47;;;11.61;100.00
42591;BME280;28218;53.342;-6.216;2023-04-01T10:00:06;100743.03;;;11.63;100.00
42591;BME280;28218;53.342;-6.216;2023-04-01T10:06:17;100750.59;;;11.66;100.00
42591;BME280;28218;53.342;-6.216;2023-04-01T10:15:46;100775.81;;;11.37;100.00
42591;BME280;28218;53.342;-6.216;2023-04-01T10:18:53;100785.56;;;11.29;100.00
42591;BME280;28218;53.342;-6.216;2023-04-01T10:21:55;100797.78;;;11.30;100.00
42591;BME280;28218;53.342;-6.216;2023-04-01T10:30:45;100809.38;;;11.51;100.00
42591;BME280;28218;53.342;-6.216;2023-04-01T10:33:53;100819.91;;;11.60;100.00
42591;BME280;28218;53.342;-6.216;2023-04-01T10:36:50;100828.66;;;11.60;100.00
42591;BME280;28218;53.342;-6.216;2023-04-01T10:39:45;100834.09;;;11.59;100.00
42591;BME280;28218;53.342;-6.216;2023-04-01T10:45:54;100845.91;;;11.71;100.00
42591;BME280;28218;53.342;-6.216;2023-04-01T10:54:49;100853.06;;;12.01;100.00
42591;BME280;28218;53.342;-6.216;2023-04-01T11:01:01;100863.69;;;12.16;100.00
42591;BME280;28218;53.342;-6.216;2023-04-01T11:03:51;100866.44;;;12.23;100.00
42591;BME280;28218;53.342;-6.216;2023-04-01T11:06:49;100870.69;;;12.32;100.00
42591;BME280;28218;53.342;-6.216;2023-04-01T11:10:18;100879.28;;;12.34;100.00
42591;BME280;28218;53.342;-6.216;2023-04-01T11:13:30;100877.97;;;12.30;100.00
42591;BME280;28218;53.342;-6.216;2023-04-01T11:16:46;100886.72;;;12.31;100.00
42591;BME280;28218;53.342;-6.216;2023-04-01T11:22:36;100892.78;;;12.39;100.00
42591;BME280;28218;53.342;-6.216;2023-04-01T11:25:24;100896.41;;;12.38;100.00
42591;BME280;28218;53.342;-6.216;2023-04-01T11:31:04;100905.31;;;12.60;100.00
42591;BME280;28218;53.342;-6.216;2023-04-01T11:33:44;100918.38;;;12.85;100.00
42591;BME280;28218;53.342;-6.216;2023-04-01T11:36:25;100921.66;;;12.87;100.00
42591;BME280;28218;53.342;-6.216;2023-04-01T11:39:11;100926.84;;;12.80;100.00
42591;BME280;28218;53.342;-6.216;2023-04-01T11:41:53;100925.72;;;12.74;100.00
42591;BME280;28218;53.342;-6.216;2023-04-01T11:44:27;100936.81;;;12.70;100.00
42591;BME280;28218;53.342;-6.216;2023-04-01T11:47:17;100944.28;;;12.66;100.00
42591;BME280;28218;53.342;-6.216;2023-04-01T11:49:56;100948.09;;;12.64;100.00
42591;BME280;28218;53.342;-6.216;2023-04-01T11:52:44;100954.41;;;12.63;100.00
42591;BME280;28218;53.342;-6.216;2023-04-01T11:55:23;100961.50;;;12.62;100.00
42591;BME280;28218;53.342;-6.216;2023-04-01T11:58:14;100969.53;;;12.69;100.00
42591;BME280;28218;53.342;-6.216;2023-04-01T12:01:04;100972.09;;;12.85;100.00
42591;BME280;28218;53.342;-6.216;2023-04-01T12:03:59;100976.47;;;12.93;100.00
42591;BME280;28218;53.342;-6.216;2023-04-01T12:06:35;100980.06;;;13.00;100.00
42591;BME280;28218;53.342;-6.216;2023-04-01T12:09:11;100981.19;;;13.05;100.00
42591;BME280;28218;53.342;-6.216;2023-04-01T12:11:45;100991.31;;;13.17;100.00
42591;BME280;28218;53.342;-6.216;2023-04-01T12:14:24;100997.34;;;13.34;100.00
42591;BME280;28218;53.342;-6.216;2023-04-01T12:17:03;100995.44;;;13.42;100.00
42591;BME280;28218;53.342;-6.216;2023-04-01T12:19:40;101012.63;;;13.46;100.00
42591;BME280;28218;53.342;-6.216;2023-04-01T12:22:23;101020.31;;;13.71;100.00
42591;BME280;28218;53.342;-6.216;2023-04-01T12:25:00;101021.97;;;13.87;100.00
42591;BME280;28218;53.342;-6.216;2023-04-01T12:27:39;101027.19;;;13.95;100.00
42591;BME280;28218;53.342;-6.216;2023-04-01T12:30:40;101047.91;;;13.91;100.00
42591;BME280;28218;53.342;-6.216;2023-04-01T12:33:28;101056.13;;;13.81;100.00
42591;BME280;28218;53.342;-6.216;2023-04-01T12:36:12;101057.03;;;13.74;100.00
42591;BME280;28218;53.342;-6.216;2023-04-01T12:38:54;101069.44;;;13.73;100.00
42591;BME280;28218;53.342;-6.216;2023-04-01T12:41:32;101072.47;;;13.70;100.00
42591;BME280;28218;53.342;-6.216;2023-04-01T12:44:26;101078.66;;;13.63;100.00
42591;BME280;28218;53.342;-6.216;2023-04-01T12:47:10;101087.84;;;13.52;100.00
42591;BME280;28218;53.342;-6.216;2023-04-01T12:50:16;101094.03;;;13.44;100.00
42591;BME280;28218;53.342;-6.216;2023-04-01T12:53:01;101101.09;;;13.52;100.00
42591;BME280;28218;53.342;-6.216;2023-04-01T12:55:39;101102.13;;;13.66;100.00
42591;BME280;28218;53.342;-6.216;2023-04-01T12:58:29;101103.41;;;13.70;100.00
42591;BME280;28218;53.342;-6.216;2023-04-01T13:01:23;101109.28;;;13.80;100.00
42591;BME280;28218;53.342;-6.216;2023-04-01T13:04:20;101118.53;;;13.84;100.00
42591;BME280;28218;53.342;-6.216;2023-04-01T13:07:16;101129.47;;;13.81;100.00
42591;BME280;28218;53.342;-6.216;2023-04-01T13:09:53;101138.47;;;13.72;100.00
42591;BME280;28218;53.342;-6.216;2023-04-01T13:12:37;101141.56;;;13.61;100.00
42591;BME280;28218;53.342;-6.216;2023-04-01T13:15:24;101148.75;;;13.52;100.00
42591;BME280;28218;53.342;-6.216;2023-04-01T13:18:00;101150.09;;;13.48;100.00
42591;BME280;28218;53.342;-6.216;2023-04-01T13:20:41;101158.38;;;13.45;100.00
42591;BME280;28218;53.342;-6.216;2023-04-01T13:23:23;101155.91;;;13.43;100.00
42591;BME280;28218;53.342;-6.216;2023-04-01T13:26:04;101163.84;;;13.43;100.00
42591;BME280;28218;53.342;-6.216;2023-04-01T13:28:47;101171.78;;;13.43;100.00
42591;BME280;28218;53.342;-6.216;2023-04-01T13:31:32;101174.91;;;13.47;100.00
42591;BME280;28218;53.342;-6.216;2023-04-01T13:34:13;101173.91;;;13.48;100.00
42591;BME280;28218;53.342;-6.216;2023-04-01T13:36:53;101188.16;;;13.47;100.00
42591;BME280;28218;53.342;-6.216;2023-04-01T13:39:36;101185.84;;;13.44;100.00
42591;BME280;28218;53.342;-6.216;2023-04-01T13:42:16;101197.44;;;13.43;100.00
42591;BME280;28218;53.342;-6.216;2023-04-01T13:44:53;101202.25;;;13.39;100.00
42591;BME280;28218;53.342;-6.216;2023-04-01T13:47:49;101207.25;;;13.34;100.00
42591;BME280;28218;53.342;-6.216;2023-04-01T13:50:36;101217.19;;;13.32;100.00
42591;BME280;28218;53.342;-6.216;2023-04-01T13:56:32;101237.66;;;12.99;100.00
42591;BME280;28218;53.342;-6.216;2023-04-01T13:59:25;101252.41;;;12.85;100.00
42591;BME280;28218;53.342;-6.216;2023-04-01T14:02:09;101251.44;;;12.78;100.00
42591;BME280;28218;53.342;-6.216;2023-04-01T14:04:50;101256.72;;;12.78;100.00
42591;BME280;28218;53.342;-6.216;2023-04-01T14:07:42;101260.38;;;12.77;100.00
42591;BME280;28218;53.342;-6.216;2023-04-01T14:10:20;101266.16;;;12.81;100.00
42591;BME280;28218;53.342;-6.216;2023-04-01T14:12:58;101263.16;;;12.84;100.00
42591;BME280;28218;53.342;-6.216;2023-04-01T14:18:58;101270.06;;;12.93;100.00